Skip Navigation Links
NOAA logo - Click to go to the NOAA homepage
NOAA's National Weather Service
Alaska Aviation Weather Unit
  NWS logo - Click to go to the NWS homepage
Left Navbar Graphic     02 AKDT = 10 GMT

   
NOAA is celebrating 200 years of science, service, and stewardship. Visit the NOAA 200th celebration Web site to learn more.
USA.gov is the U.S. Government's official Web portal to all Federal, state and local government Web resources and services.
Facebook
NWS on Facebook

AAWU Home :: Display TAF Add Bookmark
TAF PAOT 270520Z 2706/2806 VRB03KT P6SM SKC=
METAR PAOT 270453Z 00000KT 10SM CLR M22/M26 A3000=

METAR PAOT 270553Z 29003KT 10SM CLR M24/M26 A3000=

METAR PAOT 270653Z 00000KT 10SM CLR M25/M27 A2999=

METAR PAOT 270753Z AUTO 00000KT 10SM CLR M25/M27 A2999=

METAR PAOT 270853Z 00000KT 10SM CLR M26/M28 A2998=

METAR PAOT 270953Z 00000KT 10SM CLR M26/M28 A2998=


NOAA's National Weather Service
Alaska Aviation Weather Unit
6930 Sand Lake Road
Anchorage, AK 99502-1845
Disclaimer
Credits
Glossary
Privacy Policy
About Us
Career Opportunities
Contact AAWU Internet Services Site last modified: April, 17th 2012